Terminal Aerodrome Forecast
Issued by NWS Pueblo, CO

Home | Current Version | Previous Version | Text Only | Print | Product List | Glossary On
Versions: 1 2 3 4 5 6 7 8 9 10 11 12 13 14 15 16 17 18 19 20 21 22 23 24 25 26 27 28 29 30 31 32 33 34
000
FTUS45 KPUB 271730
TAFPUB
TAF
KPUB 271730Z 2718/2818 14008KT P6SM SCT100 SCT200
     FM272100 14012KT P6SM SCT100 BKN150
     FM280000 15012KT P6SM VCTS SCT080CB BKN120
     FM280300 34009KT P6SM BKN120=

USA.gov is the U.S. government's official web portal to all federal, state and local government web resources and services.